Terminal Aerodrome Forecast
Issued by NWS

Home | Current Version | Previous Version | Text Only | Print | Product List | Glossary On
Versions: 1 2 3 4 5 6 7 8 9 10 11 12 13 14
435
FTUS43 KPAH 060520
TAFCGI
TAF
KCGI 060520Z 0606/0706 VRB03KT P6SM SCT250
     FM061100 22004KT P6SM BKN070 BKN250
     FM061800 23006KT P6SM SCT250=

USA.gov is the U.S. government's official web portal to all federal, state and local government web resources and services.